Time;durP1;ratioP1;P1;durP2;ratioP2;P2;SDS_P1;SDS_P2;PMS_P1;PMS_P2;Temp;Humidity;BMP_temperature;BMP_pressure;BME280_temperature;BME280_humidity;BME280_pressure;Samples;Min_cycle;Max_cycle;Signal;HPM_P1;HPM_P2
2022/12/08 00:00:13;;;;;;;39.40;19.20;;;;;;;1.34;100.00;101052.84;5039064;28;20034;-94
2022/12/08 00:02:41;;;;;;;36.97;18.97;;;;;;;1.29;100.00;101044.66;5034320;28;20312;-94
2022/12/08 00:11:10;;;;;;;39.35;20.23;;;;;;;1.19;100.00;101029.94;5051654;28;20074;-95
2022/12/08 00:14:05;;;;;;;38.42;19.48;;;;;;;1.12;100.00;101009.78;5009640;28;20100;-94
2022/12/08 00:17:16;;;;;;;;;;;;;;;;;;;;;
2022/12/08 00:19:44;;;;;;;43.57;19.10;;;;;;;1.17;100.00;100988.91;5020324;28;20731;-94
2022/12/08 00:22:17;;;;;;;46.47;20.93;;;;;;;1.28;100.00;101004.22;5031939;28;20304;-96
2022/12/08 00:25:11;;;;;;;41.72;20.00;;;;;;;1.39;100.00;101010.00;5033629;28;20592;-96
2022/12/08 00:28:09;;;;;;;44.60;20.50;;;;;;;1.32;100.00;100992.28;5486294;23;20048;-94
2022/12/08 00:30:41;;;;;;;50.80;21.58;;;;;;;1.49;100.00;101003.38;5003014;28;20490;-94
2022/12/08 00:33:22;;;;;;;;;;;;;;;;;;;;;
2022/12/08 01:06:58;;;;;;;67.05;26.30;;;;;;;1.69;100.00;100963.06;5101504;22;20038;-94
2022/12/08 01:09:24;;;;;;;60.42;25.80;;;;;;;1.69;100.00;100954.31;4999234;28;20080;-95
2022/12/08 01:11:52;;;;;;;71.37;27.73;;;;;;;1.80;100.00;100967.00;5000352;28;20485;-95
2022/12/08 01:17:22;;;;;;;60.20;25.38;;;;;;;1.79;100.00;100957.44;4952851;28;20048;-95
2022/12/08 01:23:04;;;;;;;57.00;25.38;;;;;;;1.84;100.00;100965.56;4306461;26;20503;-96
2022/12/08 01:25:42;;;;;;;57.97;24.60;;;;;;;1.69;100.00;100943.75;5027294;28;20107;-96
2022/12/08 01:28:12;;;;;;;51.78;23.40;;;;;;;1.76;100.00;100958.63;5024808;28;20026;-92
2022/12/08 01:31:04;;;;;;;52.67;22.30;;;;;;;1.70;100.00;100943.56;5004807;28;20038;-95
2022/12/08 01:36:37;;;;;;;45.97;19.93;;;;;;;1.84;100.00;100964.75;4982681;28;20493;-94
2022/12/08 01:39:48;;;;;;;55.08;21.20;;;;;;;1.86;100.00;100968.81;5020684;28;20363;-94
2022/12/08 01:42:19;;;;;;;44.33;19.40;;;;;;;1.84;100.00;100957.63;5027253;28;20771;-92
2022/12/08 01:45:18;;;;;;;38.90;18.88;;;;;;;1.90;100.00;100970.06;5057097;23;20046;-94
2022/12/08 01:47:48;;;;;;;42.50;19.13;;;;;;;1.87;100.00;100959.88;4955870;28;20062;-94
2022/12/08 01:50:34;;;;;;;42.38;18.58;;;;;;;1.83;100.00;100942.78;5025109;23;20060;-95
2022/12/08 01:56:22;;;;;;;39.87;18.13;;;;;;;1.88;100.00;100935.09;5469295;23;20195;-92
2022/12/08 01:58:55;;;;;;;39.50;17.97;;;;;;;1.96;100.00;100950.78;5067237;23;20355;-94
2022/12/08 02:04:59;;;;;;;39.80;17.52;;;;;;;1.88;100.00;100929.81;5037072;23;20115;-96
2022/12/08 02:07:43;;;;;;;32.88;16.58;;;;;;;1.85;100.00;100930.19;5020963;28;20029;-96
2022/12/08 02:10:56;;;;;;;37.40;16.52;;;;;;;1.94;100.00;100946.69;5015436;28;20508;-96
2022/12/08 02:13:47;;;;;;;36.28;16.30;;;;;;;1.95;100.00;100941.22;5043105;28;20079;-94
2022/12/08 02:16:31;;;;;;;34.17;15.35;;;;;;;1.94;100.00;100939.59;5028971;28;20029;-96
2022/12/08 02:19:18;;;;;;;37.07;16.17;;;;;;;1.95;100.00;100932.47;5026633;28;20079;-94
2022/12/08 02:22:14;;;;;;;34.80;15.90;;;;;;;1.96;100.00;100929.66;5026861;28;20123;-95
2022/12/08 02:24:58;;;;;;;33.92;15.40;;;;;;;1.96;100.00;100929.66;5028986;28;20040;-95
2022/12/08 02:35:05;;;;;;;34.30;14.15;;;;;;;1.88;100.00;100898.09;5031672;28;20036;-94
2022/12/08 02:37:36;;;;;;;34.22;14.15;;;;;;;1.80;100.00;100880.59;5014619;28;20053;-95
2022/12/08 02:40:45;;;;;;;34.57;14.33;;;;;;;1.87;100.00;100896.47;5004859;28;20034;-95
2022/12/08 02:43:49;;;;;;;27.80;13.13;;;;;;;1.74;100.00;100875.28;5005989;28;20042;-94
2022/12/08 02:46:38;;;;;;;30.05;12.15;;;;;;;1.82;100.00;100888.34;4987528;28;20049;-95
2022/12/08 02:49:16;;;;;;;31.33;12.52;;;;;;;1.84;100.00;100883.63;4999610;28;20049;-94
2022/12/08 02:51:41;;;;;;;26.38;12.35;;;;;;;1.73;100.00;100861.28;5019269;28;20022;-93
2022/12/08 02:54:07;;;;;;;25.53;12.07;;;;;;;1.78;100.00;100868.59;5021528;28;20454;-93
2022/12/08 02:56:41;;;;;;;24.02;11.43;;;;;;;1.87;100.00;100871.88;5023273;28;20045;-94
2022/12/08 02:59:42;;;;;;;25.90;11.20;;;;;;;1.88;100.00;100871.66;5007522;28;20038;-94
2022/12/08 03:02:29;;;;;;;24.60;10.98;;;;;;;1.89;100.00;100870.66;5007317;28;20038;-95
2022/12/08 03:05:12;;;;;;;28.77;11.25;;;;;;;1.89;100.00;100856.63;5015064;28;20493;-95
2022/12/08 03:16:49;;;;;;;23.10;10.17;;;;;;;1.94;100.00;100864.75;5140161;23;20300;-95
2022/12/08 03:19:33;;;;;;;23.50;10.43;;;;;;;1.96;100.00;100868.84;5031846;28;20033;-94
2022/12/08 03:22:03;;;;;;;21.10;10.07;;;;;;;1.92;100.00;100854.41;5026099;28;20048;-93
2022/12/08 03:24:44;;;;;;;21.65;9.82;;;;;;;1.90;100.00;100856.44;5028887;28;20025;-92
2022/12/08 03:27:55;;;;;;;;;;;;;;;;;;;;;
2022/12/08 03:30:51;;;;;;;22.77;9.95;;;;;;;2.01;100.00;100848.94;5031515;28;20041;-93
2022/12/08 03:33:53;;;;;;;21.70;10.48;;;;;;;1.88;100.00;100829.38;5030362;28;20033;-92
2022/12/08 03:36:23;;;;;;;21.47;10.57;;;;;;;1.94;100.00;100833.88;5033541;28;20115;-92
2022/12/08 03:39:38;;;;;;;25.53;10.97;;;;;;;2.02;100.00;100847.91;5027494;28;20641;-92
2022/12/08 03:42:04;;;;;;;34.20;13.40;;;;;;;1.98;100.00;100839.56;5015885;28;20048;-93
2022/12/08 03:47:50;;;;;;;;;;;;;;;;;;;;;
2022/12/08 04:06:33;;;;;;;51.92;19.35;;;;;;;1.96;100.00;100805.44;5760125;22;20177;-93
2022/12/08 04:08:59;;;;;;;51.33;19.03;;;;;;;2.05;100.00;100813.16;5022111;28;20049;-94
2022/12/08 04:11:33;;;;;;;56.13;20.80;;;;;;;2.06;100.00;100805.03;4981118;28;20487;-93
2022/12/08 04:13:59;;;;;;;63.55;22.33;;;;;;;2.05;100.00;100795.47;5025242;28;20030;-93
2022/12/08 04:19:28;;;;;;;69.17;23.27;;;;;;;2.11;100.00;100799.13;5553814;22;20060;-92
2022/12/08 04:25:15;;;;;;;66.75;24.40;;;;;;;2.05;100.00;100784.91;5305682;23;20073;-94
2022/12/08 04:27:41;;;;;;;68.20;22.87;;;;;;;2.07;100.00;100785.50;5040615;28;20026;-94
2022/12/08 04:30:09;;;;;;;66.22;24.20;;;;;;;2.06;100.00;100781.25;5036118;28;20481;-92
2022/12/08 04:32:56;;;;;;;67.63;23.00;;;;;;;2.13;100.00;100783.88;5035867;28;20033;-92
2022/12/08 04:35:21;;;;;;;62.33;23.17;;;;;;;2.12;100.00;100782.25;5018605;28;20300;-93
2022/12/08 04:38:24;;;;;;;58.55;22.23;;;;;;;2.22;100.00;100792.44;5005031;28;20130;-93
2022/12/08 04:40:52;;;;;;;60.92;21.88;;;;;;;2.08;100.00;100767.81;5012570;28;20033;-93
2022/12/08 04:43:18;;;;;;;58.87;20.70;;;;;;;2.15;100.00;100775.75;5021630;28;20034;-95
2022/12/08 04:48:27;;;;;;;54.08;19.58;;;;;;;2.13;100.00;100786.53;5150591;23;20098;-93
2022/12/08 04:50:59;;;;;;;50.10;19.52;;;;;;;2.11;100.00;100785.91;5049098;28;20026;-92
2022/12/08 04:53:25;;;;;;;55.60;18.93;;;;;;;2.10;100.00;100774.50;5050393;28;20092;-93
2022/12/08 04:56:11;;;;;;;47.20;18.10;;;;;;;2.16;100.00;100778.19;5047088;28;20301;-92
2022/12/08 04:59:29;;;;;;;46.15;17.30;;;;;;;2.14;100.00;100774.94;5005696;28;20026;-92
2022/12/08 05:08:31;;;;;;;40.70;15.27;;;;;;;2.03;100.00;100760.50;4977109;28;20038;-92
2022/12/08 05:11:07;;;;;;;36.80;13.75;;;;;;;2.12;100.00;100780.41;5003577;28;20150;-93
2022/12/08 05:13:33;;;;;;;33.03;13.15;;;;;;;2.14;100.00;100788.16;5025284;28;20124;-90
2022/12/08 05:16:06;;;;;;;29.60;10.80;;;;;;;2.14;100.00;100796.09;5022404;28;20037;-90
2022/12/08 05:18:32;;;;;;;26.90;10.20;;;;;;;2.07;100.00;100782.03;5045073;28;20409;-92
2022/12/08 05:20:58;;;;;;;24.30;9.55;;;;;;;2.12;100.00;100792.84;5045696;28;20029;-91
2022/12/08 05:27:04;;;;;;;17.23;6.40;;;;;;;1.98;100.00;100780.63;4948119;29;20205;-90
2022/12/08 05:29:58;;;;;;;16.23;6.15;;;;;;;2.03;100.00;100780.81;4943963;29;20127;-90
2022/12/08 05:32:24;;;;;;;14.48;5.05;;;;;;;1.98;100.00;100778.78;4998687;28;20124;-91
2022/12/08 05:39:05;;;;;;;13.25;4.68;;;;;;;2.09;100.00;100782.66;5026724;28;20052;-92
2022/12/08 05:41:33;;;;;;;9.85;4.25;;;;;;;1.95;100.00;100766.78;4980135;28;20039;-92
2022/12/08 05:43:58;;;;;;;13.88;5.03;;;;;;;1.95;100.00;100761.50;4965042;28;20090;-92
2022/12/08 05:49:36;;;;;;;10.10;4.47;;;;;;;2.05;100.00;100773.50;4980426;28;20065;-92
2022/12/08 05:52:01;;;;;;;14.27;5.17;;;;;;;2.04;100.00;100770.06;5009269;28;20501;-91
2022/12/08 06:11:28;;;;;;;8.30;2.83;;;;;;;1.94;100.00;100769.63;5139060;23;20042;-92
2022/12/08 06:28:50;;;;;;;5.17;2.80;;;;;;;1.95;100.00;100771.25;5045172;28;20044;-90
2022/12/08 06:31:41;;;;;;;;;;;;;;;;;;;;;
2022/12/08 06:34:26;;;;;;;4.30;2.42;;;;;;;1.88;100.00;100760.69;4977857;28;20070;-90
2022/12/08 06:36:51;;;;;;;7.93;2.50;;;;;;;1.77;100.00;100748.06;4989208;28;20035;-91
2022/12/08 06:39:17;;;;;;;7.00;3.37;;;;;;;1.87;100.00;100763.53;5030551;28;20050;-90
2022/12/08 06:44:41;;;;;;;4.30;3.03;;;;;;;1.75;100.00;100756.19;5037519;28;20664;-92
2022/12/08 06:47:09;;;;;;;4.63;2.38;;;;;;;1.69;100.00;100750.88;5040449;28;20018;-91
2022/12/08 06:49:35;;;;;;;7.40;2.75;;;;;;;1.65;100.00;100756.56;5033013;28;20083;-92
2022/12/08 06:52:00;;;;;;;3.70;2.30;;;;;;;1.54;100.00;100743.94;5036216;28;20065;-93
2022/12/08 06:54:41;;;;;;;4.73;2.40;;;;;;;1.63;100.00;100749.88;5079246;23;20045;-91
2022/12/08 06:57:12;;;;;;;6.90;1.95;;;;;;;1.56;100.00;100736.66;5041249;28;20033;-90
2022/12/08 06:59:53;;;;;;;6.15;2.15;;;;;;;1.58;100.00;100739.91;5049754;28;20023;-90
2022/12/08 07:02:28;;;;;;;5.72;2.05;;;;;;;1.74;100.00;100753.75;5032440;28;20037;-89
2022/12/08 07:05:15;;;;;;;3.60;2.00;;;;;;;1.77;100.00;100758.63;5047197;28;20029;-88
2022/12/08 07:07:46;;;;;;;3.53;2.20;;;;;;;1.63;100.00;100739.28;5052638;28;20307;-88
2022/12/08 07:10:46;;;;;;;10.65;2.60;;;;;;;1.79;100.00;100757.41;5038924;28;20036;-87
2022/12/08 07:19:55;;;;;;;8.23;2.65;;;;;;;1.76;100.00;100759.66;5032243;23;20056;-89
2022/12/08 07:22:21;;;;;;;6.23;3.23;;;;;;;1.71;100.00;100748.84;5020970;28;20029;-89
2022/12/08 07:25:28;;;;;;;8.57;3.70;;;;;;;1.87;100.00;100774.91;5485040;22;20054;-88
2022/12/08 07:28:10;;;;;;;8.93;4.10;;;;;;;1.87;100.00;100776.75;5028763;28;20094;-86
2022/12/08 07:30:37;;;;;;;8.13;4.73;;;;;;;1.78;100.00;100766.34;5028203;28;20025;-87
2022/12/08 07:38:12;;;;;;;12.15;5.20;;;;;;;1.80;100.00;100763.53;5684447;23;20050;-88
2022/12/08 07:40:38;;;;;;;11.97;5.30;;;;;;;1.85;100.00;100770.84;5023519;28;20036;-88
2022/12/08 07:43:03;;;;;;;14.37;5.90;;;;;;;1.85;100.00;100757.63;5023290;28;20026;-88
2022/12/08 07:45:28;;;;;;;14.68;6.32;;;;;;;1.85;100.00;100763.72;5011494;28;20045;-92
2022/12/08 07:47:54;;;;;;;15.23;6.40;;;;;;;1.84;100.00;100748.88;5012890;28;20092;-90
2022/12/08 07:50:19;;;;;;;15.33;6.97;;;;;;;1.90;100.00;100758.66;5010407;28;20018;-89
2022/12/08 07:52:44;;;;;;;15.17;7.30;;;;;;;1.91;100.00;100752.34;4998394;28;20027;-90
2022/12/08 07:55:10;;;;;;;16.33;7.77;;;;;;;1.94;100.00;100751.94;4995154;28;20093;-91
2022/12/08 07:57:35;;;;;;;15.75;8.25;;;;;;;1.90;100.00;100748.06;5017583;28;20053;-92
2022/12/08 08:00:02;;;;;;;24.13;10.73;;;;;;;1.99;100.00;100763.75;5013450;28;20044;-91
2022/12/08 08:02:28;;;;;;;37.42;14.18;;;;;;;1.95;100.00;100753.56;5001342;28;20030;-91
2022/12/08 08:05:21;;;;;;;40.57;15.80;;;;;;;2.03;100.00;100764.94;5031212;28;20060;-90
2022/12/08 08:07:49;;;;;;;42.28;15.68;;;;;;;2.00;100.00;100760.09;5016079;28;20033;-91
2022/12/08 08:10:15;;;;;;;55.58;19.55;;;;;;;2.02;100.00;100761.50;5015279;28;20645;-89
2022/12/08 08:12:40;;;;;;;59.10;22.43;;;;;;;2.06;100.00;100765.38;5050058;23;21223;-89
2022/12/08 08:18:22;;;;;;;67.68;25.30;;;;;;;1.93;100.00;100742.38;5021288;28;20523;-90
2022/12/08 08:20:48;;;;;;;59.95;23.25;;;;;;;1.93;100.00;100742.38;5048044;28;20029;-88
2022/12/08 08:49:58;;;;;;;23.83;12.00;;;;;;;2.14;100.00;100764.38;5966470;23;20018;-89
2022/12/08 08:52:23;;;;;;;27.97;12.70;;;;;;;2.16;100.00;100759.69;4995839;28;20041;-89
2022/12/08 08:54:48;;;;;;;29.20;11.27;;;;;;;2.19;100.00;100766.41;5016719;28;20037;-91
2022/12/08 08:57:13;;;;;;;20.25;9.93;;;;;;;2.17;100.00;100757.84;5018702;28;20026;-92
2022/12/08 08:59:39;;;;;;;20.70;9.57;;;;;;;2.22;100.00;100761.50;5006685;28;20030;-91
2022/12/08 09:02:04;;;;;;;24.27;10.40;;;;;;;2.25;100.00;100766.38;5010555;28;20053;-91
2022/12/08 09:04:29;;;;;;;16.57;8.63;;;;;;;2.26;100.00;100761.94;5010218;28;20042;-91
2022/12/08 09:06:55;;;;;;;20.63;7.93;;;;;;;2.26;100.00;100760.09;5015188;28;20018;-91
2022/12/08 09:09:20;;;;;;;14.47;7.13;;;;;;;2.31;100.00;100761.31;5017134;28;20026;-91
2022/12/08 09:11:55;;;;;;;13.20;6.53;;;;;;;2.35;100.00;100757.25;5021761;28;20037;-93
2022/12/08 09:24:41;;;;;;;10.60;5.95;;;;;;;2.39;100.00;100740.75;5475489;23;20049;-94
2022/12/08 09:27:07;;;;;;;11.07;6.57;;;;;;;2.52;100.00;100747.88;5046917;28;20036;-92
2022/12/08 09:29:32;;;;;;;12.40;6.83;;;;;;;2.62;100.00;100762.50;5046431;28;20461;-93
2022/12/08 09:31:57;;;;;;;16.63;8.40;;;;;;;2.63;100.00;100762.31;5045499;28;20018;-93
2022/12/08 09:34:23;;;;;;;18.35;9.60;;;;;;;2.67;100.00;100757.41;5037503;28;20058;-93
2022/12/08 09:36:48;;;;;;;28.03;12.23;;;;;;;2.68;100.00;100762.47;5026436;28;20048;-93
2022/12/08 09:39:13;;;;;;;29.33;13.27;;;;;;;2.72;100.00;100755.75;5024260;28;20470;-94
2022/12/08 09:41:48;;;;;;;29.30;12.90;;;;;;;2.77;100.00;100751.69;5022943;28;20030;-92
2022/12/08 09:44:32;;;;;;;34.67;14.68;;;;;;;2.83;100.00;100759.59;5021283;28;20018;-92
2022/12/08 09:47:00;;;;;;;36.95;14.63;;;;;;;2.80;100.00;100757.38;5037346;28;20036;-93
2022/12/08 09:49:52;;;;;;;34.38;14.23;;;;;;;2.77;100.00;100762.25;5038169;28;20119;-93
2022/12/08 09:52:23;;;;;;;36.50;14.65;;;;;;;2.73;100.00;100767.16;5018610;28;20034;-93
2022/12/08 09:54:49;;;;;;;37.70;15.27;;;;;;;2.73;100.00;100751.28;5020578;28;20022;-93
2022/12/08 09:57:18;;;;;;;37.97;15.90;;;;;;;2.75;100.00;100751.88;5026587;28;20113;-93
2022/12/08 09:59:50;;;;;;;42.97;16.90;;;;;;;2.81;100.00;100750.25;5048977;28;20030;-92
2022/12/08 10:02:25;;;;;;;39.13;17.13;;;;;;;2.82;100.00;100750.03;5040040;28;20029;-93
2022/12/08 10:04:53;;;;;;;47.20;17.63;;;;;;;2.87;100.00;100752.88;5040916;28;20029;-93
2022/12/08 10:07:44;;;;;;;46.42;18.90;;;;;;;2.90;100.00;100741.06;5043684;28;20100;-92
2022/12/08 10:10:33;;;;;;;52.85;20.48;;;;;;;2.90;100.00;100746.34;5044038;28;20042;-93
2022/12/08 10:13:28;;;;;;;54.38;22.70;;;;;;;2.91;100.00;100741.88;5053996;28;20024;-93
2022/12/08 10:16:17;;;;;;;63.05;24.75;;;;;;;2.85;100.00;100744.34;5053351;28;20132;-94
2022/12/08 10:18:42;;;;;;;61.97;24.00;;;;;;;2.82;100.00;100741.28;5047154;28;20037;-93
2022/12/08 10:21:17;;;;;;;71.70;24.57;;;;;;;2.84;100.00;100732.13;5047689;28;20287;-93
2022/12/08 10:23:47;;;;;;;73.38;26.30;;;;;;;2.84;100.00;100731.28;5046261;28;20037;-94
2022/12/08 10:26:15;;;;;;;69.77;27.37;;;;;;;2.84;100.00;100739.22;5047418;28;20028;-93
2022/12/08 10:28:41;;;;;;;71.27;26.33;;;;;;;2.78;100.00;100730.28;5046328;28;20295;-93
2022/12/08 10:31:14;;;;;;;72.18;27.33;;;;;;;2.79;100.00;100729.28;5047510;28;20044;-92
2022/12/08 10:33:39;;;;;;;75.07;26.92;;;;;;;2.78;100.00;100732.94;5040940;28;20021;-93
2022/12/08 10:36:05;;;;;;;80.60;28.37;;;;;;;2.73;100.00;100735.41;5037526;28;20358;-94
2022/12/08 10:38:36;;;;;;;74.43;26.77;;;;;;;2.75;100.00;100727.25;5036822;28;20025;-93
2022/12/08 10:41:10;;;;;;;77.35;28.60;;;;;;;2.75;100.00;100725.41;5034728;28;20041;-93
2022/12/08 10:43:46;;;;;;;79.68;27.77;;;;;;;2.74;100.00;100723.78;5037082;28;20168;-95
2022/12/08 10:46:15;;;;;;;78.40;29.00;;;;;;;2.75;100.00;100724.59;5040299;28;20028;-93
2022/12/08 10:49:08;;;;;;;76.63;28.55;;;;;;;2.74;100.00;100715.84;5041199;28;20036;-93
2022/12/08 10:51:39;;;;;;;74.90;27.48;;;;;;;2.78;100.00;100729.50;5035054;28;20037;-95
2022/12/08 10:57:24;;;;;;;67.35;26.13;;;;;;;2.71;100.00;100730.31;5030789;28;20036;-93
2022/12/08 11:05:46;;;;;;;55.10;21.65;;;;;;;2.51;100.00;100695.97;5279475;22;20410;-95
2022/12/08 11:08:33;;;;;;;54.40;21.35;;;;;;;2.57;100.00;100704.91;5037930;28;20029;-96
2022/12/08 11:10:58;;;;;;;47.47;18.93;;;;;;;2.65;100.00;100707.31;5036790;28;20047;-96
2022/12/08 11:13:29;;;;;;;42.33;16.80;;;;;;;2.68;100.00;100706.13;5045961;28;20336;-96
2022/12/08 11:16:14;;;;;;;;;;;;;;;;;;;;;
2022/12/08 11:21:41;;;;;;;33.70;15.18;;;;;;;2.48;100.00;100690.28;5037557;28;20060;-95
2022/12/08 11:24:40;;;;;;;41.23;15.57;;;;;;;2.64;100.00;100692.50;5045681;28;20040;-93
2022/12/08 11:27:18;;;;;;;37.63;15.67;;;;;;;2.75;100.00;100706.09;5031327;28;20281;-94
2022/12/08 11:30:23;;;;;;;37.97;15.88;;;;;;;2.84;100.00;100699.53;5037739;28;20049;-94
2022/12/08 11:33:18;;;;;;;33.08;16.95;;;;;;;2.80;100.00;100685.91;5027214;28;20488;-94
2022/12/08 11:35:48;;;;;;;39.45;17.38;;;;;;;2.79;100.00;100683.47;5027845;28;20049;-92
2022/12/08 11:47:52;;;;;;;27.67;13.98;;;;;;;2.73;100.00;100663.97;5401147;22;20057;-94
2022/12/08 11:50:26;;;;;;;27.30;13.97;;;;;;;2.82;100.00;100675.13;5026497;28;20052;-93
2022/12/08 11:53:29;;;;;;;28.60;14.27;;;;;;;2.86;100.00;100684.25;5018256;28;20339;-93
2022/12/08 11:55:59;;;;;;;29.73;14.55;;;;;;;2.79;100.00;100673.69;5030991;28;20061;-93
2022/12/08 11:58:45;;;;;;;31.33;15.07;;;;;;;2.80;100.00;100667.38;5030097;28;20568;-91
2022/12/08 12:01:20;;;;;;;37.17;15.63;;;;;;;2.68;100.00;100664.56;5029258;28;20397;-93
2022/12/08 12:04:08;;;;;;;37.25;15.77;;;;;;;2.75;100.00;100677.78;5029249;28;20033;-94
2022/12/08 12:07:14;;;;;;;34.08;16.83;;;;;;;2.66;100.00;100673.75;5031194;28;20693;-93
2022/12/08 12:09:54;;;;;;;34.75;17.85;;;;;;;2.61;100.00;100670.91;5031207;28;20128;-92
2022/12/08 12:12:42;;;;;;;27.13;13.83;;;;;;;2.57;100.00;100666.03;5230773;22;20008;-92
2022/12/08 12:15:42;;;;;;;28.40;13.90;;;;;;;2.58;100.00;100665.00;5009583;28;20044;-93
2022/12/08 12:18:07;;;;;;;26.10;13.00;;;;;;;2.61;100.00;100668.25;5011497;28;20033;-92
2022/12/08 12:20:35;;;;;;;28.27;13.20;;;;;;;2.62;100.00;100659.31;5012081;28;20374;-93
2022/12/08 12:23:08;;;;;;;25.25;13.35;;;;;;;2.65;100.00;100666.84;5007334;28;20026;-93
2022/12/08 12:25:36;;;;;;;26.45;12.88;;;;;;;2.70;100.00;100659.09;5006328;28;20042;-92
2022/12/08 12:28:05;;;;;;;26.05;14.07;;;;;;;2.75;100.00;100659.25;5011811;28;20126;-93
2022/12/08 12:31:00;;;;;;;28.63;13.90;;;;;;;2.81;100.00;100662.91;5009738;28;20058;-93
2022/12/08 12:33:41;;;;;;;27.92;14.60;;;;;;;2.74;100.00;100652.34;5031139;22;20124;-92
2022/12/08 12:36:14;;;;;;;26.97;14.90;;;;;;;2.77;100.00;100657.22;5028924;28;20021;-92
2022/12/08 12:39:00;;;;;;;24.87;14.17;;;;;;;2.66;100.00;100642.00;5028415;28;20288;-92
2022/12/08 12:41:42;;;;;;;25.33;14.23;;;;;;;2.75;100.00;100646.03;5031999;28;20029;-92
2022/12/08 12:44:11;;;;;;;24.00;13.35;;;;;;;2.81;100.00;100653.13;4998190;28;20092;-92
2022/12/08 12:46:47;;;;;;;24.02;12.43;;;;;;;2.85;100.00;100643.75;5009545;28;20034;-93
2022/12/08 12:49:34;;;;;;;26.85;12.07;;;;;;;2.93;100.00;100641.88;5009654;28;20247;-92
2022/12/08 12:51:59;;;;;;;21.75;11.77;;;;;;;3.00;100.00;100642.66;5013053;28;20607;-92
2022/12/08 12:54:27;;;;;;;21.67;11.17;;;;;;;3.06;100.00;100639.19;5016713;28;20029;-93
2022/12/08 13:04:38;;;;;;;17.98;10.23;;;;;;;2.98;100.00;100621.72;6034057;22;20085;-89
2022/12/08 13:13:43;;;;;;;18.85;9.20;;;;;;;3.14;100.00;100641.56;5043012;23;20049;-91
2022/12/08 13:20:37;;;;;;;15.60;9.30;;;;;;;3.22;100.00;100637.84;4975902;28;20190;-91
2022/12/08 13:32:00;;;;;;;14.47;8.60;;;;;;;3.08;100.00;100628.34;5016474;28;20188;-91
2022/12/08 13:35:13;;;;;;;15.70;8.30;;;;;;;3.06;100.00;100631.22;5027863;28;20281;-91
2022/12/08 13:38:13;;;;;;;;;;;;;;;;;;;;;
2022/12/08 13:46:56;;;;;;;14.82;8.48;;;;;;;3.02;100.00;100617.59;5755285;22;20061;-93
2022/12/08 13:50:03;;;;;;;12.82;7.70;;;;;;;3.00;100.00;100603.78;5018608;28;20092;-92
2022/12/08 13:52:35;;;;;;;14.95;7.80;;;;;;;2.98;100.00;100600.53;5014965;28;20160;-92
2022/12/08 13:55:02;;;;;;;13.73;7.90;;;;;;;2.92;100.00;100589.97;5014208;28;20481;-91
2022/12/08 13:57:34;;;;;;;10.73;7.17;;;;;;;2.87;100.00;100586.13;5012957;28;20116;-92
2022/12/08 14:00:37;;;;;;;9.93;6.70;;;;;;;2.83;100.00;100581.47;5013570;28;20319;-92
2022/12/08 14:03:02;;;;;;;11.40;6.47;;;;;;;2.79;100.00;100578.44;5034548;23;20057;-92
2022/12/08 14:05:41;;;;;;;12.95;7.15;;;;;;;2.72;100.00;100570.53;5029245;28;20076;-91
2022/12/08 14:08:19;;;;;;;10.48;6.25;;;;;;;2.77;100.00;100599.00;5032962;28;20116;-91
2022/12/08 14:10:52;;;;;;;11.90;5.88;;;;;;;2.64;100.00;100591.13;5026868;28;20064;-94
2022/12/08 14:13:28;;;;;;;10.07;5.80;;;;;;;2.53;100.00;100584.66;5028037;28;20108;-93
2022/12/08 14:29:54;;;;;;;11.93;6.40;;;;;;;2.83;100.00;100610.59;4999511;28;20050;-92
2022/12/08 14:32:33;;;;;;;11.30;6.53;;;;;;;2.83;100.00;100613.25;4999614;28;20308;-92
2022/12/08 14:35:07;;;;;;;9.30;6.20;;;;;;;2.80;100.00;100600.44;5020048;28;20034;-92
2022/12/08 14:37:56;;;;;;;7.97;6.00;;;;;;;2.73;100.00;100597.81;5015651;28;20025;-91
2022/12/08 14:40:25;;;;;;;10.27;5.70;;;;;;;2.76;100.00;100602.66;5012712;28;20125;-92
2022/12/08 14:43:06;;;;;;;5.97;5.00;;;;;;;2.73;100.00;100600.47;5017384;28;20569;-92
2022/12/08 14:45:34;;;;;;;6.13;4.43;;;;;;;2.61;100.00;100599.47;5005449;28;20026;-91
2022/12/08 14:48:20;;;;;;;7.60;4.82;;;;;;;2.60;100.00;100603.97;4995169;28;20393;-92
2022/12/08 14:51:11;;;;;;;4.00;3.60;;;;;;;2.54;100.00;100610.91;4994606;28;20026;-92
2022/12/08 14:53:43;;;;;;;5.57;3.50;;;;;;;2.45;100.00;100601.56;5008229;28;20296;-90
2022/12/08 14:56:39;;;;;;;4.97;3.25;;;;;;;2.38;100.00;100600.78;5014025;28;20030;-90
2022/12/08 14:59:14;;;;;;;7.82;3.33;;;;;;;2.21;100.00;100595.94;5012845;28;20036;-90
2022/12/08 15:11:48;;;;;;;4.03;2.85;;;;;;;1.84;100.00;100613.31;4972270;28;20565;-89
2022/12/08 15:18:28;;;;;;;7.67;3.70;;;;;;;1.82;100.00;100608.25;4992115;28;20303;-90
2022/12/08 15:21:00;;;;;;;4.32;3.42;;;;;;;1.73;100.00;100610.28;5011367;28;20149;-90
2022/12/08 15:23:30;;;;;;;6.03;3.40;;;;;;;1.65;100.00;100608.63;5013769;28;20053;-90
2022/12/08 15:25:56;;;;;;;5.15;3.72;;;;;;;1.51;100.00;100607.84;5014475;28;20032;-88
2022/12/08 15:28:29;;;;;;;7.03;4.30;;;;;;;1.53;100.00;100618.19;5011197;28;20037;-88
2022/12/08 15:30:55;;;;;;;6.07;3.55;;;;;;;1.50;100.00;100615.94;5024746;28;20033;-91
2022/12/08 15:33:21;;;;;;;7.97;4.32;;;;;;;1.45;100.00;100626.31;5010661;28;20111;-94
2022/12/08 15:35:50;;;;;;;6.57;4.57;;;;;;;1.44;100.00;100633.41;5016003;28;20034;-91
2022/12/08 15:38:22;;;;;;;10.35;4.00;;;;;;;1.38;100.00;100622.84;5014594;28;20033;-93
2022/12/08 15:40:51;;;;;;;5.47;4.00;;;;;;;1.37;100.00;100624.66;5012183;28;20041;-92
2022/12/08 15:47:02;;;;;;;;;;;;;;;;;;;;;
2022/12/08 15:56:54;;;;;;;4.90;3.28;;;;;;;1.14;100.00;100607.41;4966343;28;20054;-91
2022/12/08 15:59:26;;;;;;;4.90;3.67;;;;;;;1.19;100.00;100626.06;4978343;28;20101;-93
2022/12/08 16:07:36;;;;;;;5.10;3.72;;;;;;;0.83;100.00;100614.00;5032538;28;20397;-92
2022/12/08 16:10:03;;;;;;;6.78;4.20;;;;;;;0.83;100.00;100626.38;5036422;28;20676;-93
2022/12/08 16:15:12;;;;;;;5.50;3.97;;;;;;;0.66;100.00;100624.09;5033854;28;20121;-94
2022/12/08 16:17:39;;;;;;;5.33;4.10;;;;;;;0.65;100.00;100625.09;5023711;28;20073;-91
2022/12/08 16:20:09;;;;;;;7.60;4.25;;;;;;;0.64;100.00;100622.69;5023811;28;20032;-91
2022/12/08 16:33:13;;;;;;;9.97;5.90;;;;;;;0.59;100.00;100588.97;5033372;28;20044;-92
2022/12/08 16:35:40;;;;;;;9.75;5.68;;;;;;;0.56;100.00;100589.34;5035609;28;20040;-92
2022/12/08 16:38:13;;;;;;;11.05;6.30;;;;;;;0.37;100.00;100572.44;5036089;28;20057;-92
2022/12/08 16:44:10;;;;;;;9.48;6.20;;;;;;;0.38;100.00;100606.50;5517179;22;20059;-94
2022/12/08 16:46:38;;;;;;;9.75;5.65;;;;;;;0.21;100.00;100592.88;5040877;28;20445;-93
2022/12/08 16:52:29;;;;;;;7.60;5.20;;;;;;;0.01;100.00;100578.75;5367598;23;20056;-94
2022/12/08 16:55:51;;;;;;;9.83;5.67;;;;;;;0.04;100.00;100599.44;5017336;28;20281;-94
2022/12/08 16:58:19;;;;;;;9.68;5.57;;;;;;;-0.13;100.00;100583.94;4999909;28;20045;-94
2022/12/08 17:08:50;;;;;;;11.57;6.30;;;;;;;-0.27;100.00;100590.94;5487934;22;20053;-94
2022/12/08 17:29:23;;;;;;;15.38;8.90;;;;;;;-0.10;100.00;100574.84;5098815;23;20083;-96
2022/12/08 17:31:52;;;;;;;15.43;8.73;;;;;;;0.02;100.00;100588.28;5046598;28;20045;-96
2022/12/08 17:34:18;;;;;;;16.98;9.05;;;;;;;0.23;100.00;100600.56;5047725;28;20018;-95
2022/12/08 17:37:02;;;;;;;18.50;8.83;;;;;;;0.37;100.00;100604.09;5035258;28;20028;-96
2022/12/08 17:39:57;;;;;;;20.52;9.88;;;;;;;0.28;100.00;100582.34;5017627;28;20110;-96
2022/12/08 17:55:56;;;;;;;23.90;12.00;;;;;;;0.46;100.00;100581.81;5256226;22;20037;-94
2022/12/08 17:58:23;;;;;;;23.63;12.02;;;;;;;0.54;100.00;100586.13;5057398;28;20025;-95
2022/12/08 18:00:49;;;;;;;25.38;13.00;;;;;;;0.59;100.00;100588.97;5048800;28;20025;-95
2022/12/08 18:03:16;;;;;;;27.83;12.68;;;;;;;0.63;100.00;100590.19;5044793;28;20025;-96
2022/12/08 18:08:31;;;;;;;26.58;13.13;;;;;;;0.59;100.00;100573.13;5043825;23;20057;-96